Time;durP1;ratioP1;P1;durP2;ratioP2;P2;SDS_P1;SDS_P2;PMS_P1;PMS_P2;Temp;Humidity;BMP_temperature;BMP_pressure;BME280_temperature;BME280_humidity;BME280_pressure;Samples;Min_cycle;Max_cycle;Signal;HPM_P1;HPM_P2
2022/01/17 00:00:36;;;;;;;26.65;15.50;;;;;;;5.97;100.00;103003.00;5031295;28;20033;-57
2022/01/17 00:03:04;;;;;;;22.85;15.27;;;;;;;5.97;100.00;103006.53;5033984;28;20480;-54
2022/01/17 00:05:31;;;;;;;26.00;15.82;;;;;;;5.98;100.00;103004.66;5033658;28;20030;-53
2022/01/17 00:07:59;;;;;;;24.63;15.43;;;;;;;5.98;100.00;103001.97;5032701;28;20048;-50
2022/01/17 00:10:27;;;;;;;25.38;14.57;;;;;;;5.98;100.00;103010.06;5013247;28;20044;-54
2022/01/17 00:12:57;;;;;;;23.48;14.02;;;;;;;6.00;100.00;103012.59;5013406;28;20042;-55
2022/01/17 00:15:32;;;;;;;29.27;14.20;;;;;;;6.01;100.00;103014.28;5012036;28;20053;-57
2022/01/17 00:20:39;;;;;;;21.65;12.27;;;;;;;6.02;100.00;103018.69;5031361;28;20049;-58
2022/01/17 00:23:07;;;;;;;19.50;10.95;;;;;;;6.03;100.00;103014.94;5032008;28;20050;-56
2022/01/17 00:25:35;;;;;;;17.23;10.50;;;;;;;6.03;100.00;102999.53;5032678;28;20064;-57
2022/01/17 00:28:02;;;;;;;20.25;10.40;;;;;;;6.03;100.00;102993.28;5032441;28;20044;-59
2022/01/17 00:30:30;;;;;;;22.10;9.10;;;;;;;6.04;100.00;102989.53;5032642;28;20053;-56
2022/01/17 00:32:57;;;;;;;20.90;9.00;;;;;;;6.04;100.00;103001.25;5015198;28;20516;-59
2022/01/17 00:35:25;;;;;;;21.35;8.85;;;;;;;6.06;100.00;103001.03;5032561;28;20503;-59
2022/01/17 00:37:53;;;;;;;17.00;8.45;;;;;;;6.06;100.00;103003.75;5032238;28;20139;-56
2022/01/17 00:40:22;;;;;;;18.15;8.70;;;;;;;6.06;100.00;103011.84;5032364;28;20044;-58
2022/01/17 00:42:50;;;;;;;18.67;9.00;;;;;;;6.07;100.00;103006.28;5032763;28;20045;-57
2022/01/17 00:45:24;;;;;;;16.83;9.23;;;;;;;6.08;100.00;103007.09;5032478;28;20060;-58
2022/01/17 00:47:51;;;;;;;18.50;9.15;;;;;;;6.07;100.00;103005.44;5031984;28;20033;-56
2022/01/17 00:50:19;;;;;;;22.48;10.50;;;;;;;6.07;100.00;103000.03;5032388;28;20056;-59
2022/01/17 00:52:46;;;;;;;19.58;9.90;;;;;;;6.07;100.00;103005.44;5032467;28;20041;-59
2022/01/17 00:55:14;;;;;;;21.65;10.68;;;;;;;6.06;100.00;103003.75;5032667;28;20044;-56
2022/01/17 00:57:42;;;;;;;19.02;10.40;;;;;;;6.08;100.00;103009.81;5033250;28;20477;-56
2022/01/17 01:00:10;;;;;;;22.52;11.30;;;;;;;6.09;100.00;103011.50;5032300;28;20045;-54
2022/01/17 01:02:38;;;;;;;17.30;10.65;;;;;;;6.08;100.00;103010.66;5032341;28;20503;-56
2022/01/17 01:05:08;;;;;;;20.80;10.43;;;;;;;6.07;100.00;103022.50;5031069;28;20436;-56
2022/01/17 01:07:35;;;;;;;21.63;10.43;;;;;;;6.08;100.00;103024.19;5032351;28;20427;-56
2022/01/17 01:10:12;;;;;;;17.65;10.07;;;;;;;6.08;100.00;103032.28;5030646;28;20068;-53
2022/01/17 01:12:42;;;;;;;18.23;9.45;;;;;;;6.08;100.00;103028.75;5032279;28;20033;-54
2022/01/17 01:15:17;;;;;;;20.50;11.35;;;;;;;6.08;100.00;103023.34;5032362;28;20050;-58
2022/01/17 01:28:34;;;;;;;21.10;10.50;;;;;;;6.09;100.00;103019.63;4934463;29;20066;-57
2022/01/17 01:31:10;;;;;;;18.35;9.00;;;;;;;6.08;100.00;103012.53;4950170;29;20071;-57
2022/01/17 01:33:41;;;;;;;19.23;8.90;;;;;;;6.09;100.00;103020.47;4951966;29;20052;-56
2022/01/17 01:36:17;;;;;;;17.75;9.00;;;;;;;6.08;100.00;103024.19;4951949;29;20067;-56
2022/01/17 01:38:45;;;;;;;18.95;8.82;;;;;;;6.08;100.00;103034.16;4954868;28;20043;-56
2022/01/17 01:41:12;;;;;;;20.33;8.25;;;;;;;6.08;100.00;103039.59;4952322;29;20058;-53
2022/01/17 01:43:40;;;;;;;18.77;8.10;;;;;;;6.09;100.00;103041.28;4955465;28;20110;-56
2022/01/17 01:46:10;;;;;;;15.40;7.45;;;;;;;6.10;100.00;103048.38;4955449;29;20142;-54
2022/01/17 01:48:37;;;;;;;19.88;7.95;;;;;;;6.11;100.00;103044.63;4953885;29;20082;-56
2022/01/17 01:51:05;;;;;;;17.80;7.53;;;;;;;6.11;100.00;103028.38;4955557;29;20157;-58
2022/01/17 01:53:33;;;;;;;19.15;6.90;;;;;;;6.11;100.00;103029.25;4954182;29;20047;-56
2022/01/17 01:56:00;;;;;;;18.70;7.40;;;;;;;6.10;100.00;103026.72;4955256;29;20047;-57
2022/01/17 01:58:28;;;;;;;17.17;6.72;;;;;;;6.11;100.00;103031.09;4955344;28;20047;-55
2022/01/17 02:00:56;;;;;;;15.10;6.72;;;;;;;6.10;100.00;103035.66;4951788;29;20461;-58
2022/01/17 02:03:25;;;;;;;15.70;6.00;;;;;;;6.13;100.00;103035.31;4944631;29;20065;-59
2022/01/17 02:05:52;;;;;;;16.15;6.30;;;;;;;6.12;100.00;103036.31;4991592;28;20469;-58
2022/01/17 02:08:20;;;;;;;15.85;6.38;;;;;;;6.11;100.00;103044.63;5015795;28;20042;-58
2022/01/17 02:10:47;;;;;;;15.30;6.35;;;;;;;6.11;100.00;103033.78;5028018;28;20060;-56
2022/01/17 02:13:15;;;;;;;14.52;6.10;;;;;;;6.10;100.00;103034.84;5034664;28;20491;-52
2022/01/17 02:15:45;;;;;;;14.93;6.00;;;;;;;6.09;100.00;103042.13;5034032;28;20410;-57
2022/01/17 02:18:22;;;;;;;13.68;6.03;;;;;;;6.09;100.00;103036.72;5035341;28;20096;-54
2022/01/17 02:21:10;;;;;;;18.38;6.35;;;;;;;6.08;100.00;103042.28;5033579;28;20048;-57
2022/01/17 02:23:37;;;;;;;16.60;6.38;;;;;;;6.07;100.00;103038.75;5035323;28;20049;-57
2022/01/17 02:26:05;;;;;;;17.88;6.25;;;;;;;6.04;100.00;103019.31;5035240;28;20060;-56
2022/01/17 02:28:33;;;;;;;17.38;6.20;;;;;;;5.98;100.00;103024.44;5035026;28;20045;-56
2022/01/17 02:31:02;;;;;;;15.45;6.10;;;;;;;5.94;100.00;103023.16;5034188;28;20108;-58
2022/01/17 02:33:30;;;;;;;13.50;6.03;;;;;;;5.93;100.00;103036.81;5032686;28;20053;-54
2022/01/17 02:35:57;;;;;;;17.08;6.65;;;;;;;5.92;100.00;103030.56;5034790;28;20045;-57
2022/01/17 02:38:25;;;;;;;16.83;5.97;;;;;;;5.92;100.00;103040.56;5034912;28;20056;-56
2022/01/17 02:40:54;;;;;;;12.73;5.63;;;;;;;5.91;100.00;103038.84;5034477;28;20545;-51
2022/01/17 02:43:23;;;;;;;16.30;5.88;;;;;;;5.89;100.00;103035.47;5032869;28;20045;-57
2022/01/17 02:48:31;;;;;;;16.80;6.25;;;;;;;5.88;100.00;103036.53;5035156;28;20047;-55
2022/01/17 02:51:00;;;;;;;15.32;5.93;;;;;;;5.86;100.00;103039.41;5032644;28;20060;-58
2022/01/17 02:53:28;;;;;;;16.83;5.50;;;;;;;5.86;100.00;103038.56;5033093;28;20048;-58
2022/01/17 02:55:56;;;;;;;16.60;5.80;;;;;;;5.86;100.00;103031.28;5033370;28;20045;-55
2022/01/17 02:58:26;;;;;;;18.77;5.70;;;;;;;5.87;100.00;103049.22;5033068;28;20045;-57
2022/01/17 03:00:55;;;;;;;13.10;4.97;;;;;;;5.86;100.00;103050.22;5034457;28;20491;-56
2022/01/17 03:03:28;;;;;;;15.82;5.07;;;;;;;5.87;100.00;103038.41;5033583;28;20046;-57
2022/01/17 03:05:57;;;;;;;18.95;5.20;;;;;;;5.87;100.00;103029.41;5034128;28;20420;-53
2022/01/17 03:08:28;;;;;;;13.63;5.00;;;;;;;5.87;100.00;103032.97;5033994;28;20041;-59
2022/01/17 03:10:56;;;;;;;14.52;4.93;;;;;;;5.87;100.00;103037.53;5032854;28;20041;-57
2022/01/17 03:13:30;;;;;;;13.90;4.40;;;;;;;5.87;100.00;103016.75;5033400;28;20048;-56
2022/01/17 03:16:00;;;;;;;18.70;5.47;;;;;;;5.88;100.00;103023.81;5034213;28;20423;-58
2022/01/17 03:18:30;;;;;;;13.77;4.40;;;;;;;5.88;100.00;103029.25;5034298;28;20049;-59
2022/01/17 03:20:59;;;;;;;13.05;4.68;;;;;;;5.86;100.00;103034.00;5033688;28;20029;-58
2022/01/17 03:23:27;;;;;;;14.43;4.35;;;;;;;5.86;100.00;103039.41;5031901;28;20042;-56
2022/01/17 03:25:56;;;;;;;13.38;4.43;;;;;;;5.84;100.00;103041.44;5033985;28;20072;-58
2022/01/17 03:28:25;;;;;;;14.13;5.00;;;;;;;5.81;100.00;103049.94;5034245;28;20116;-58
2022/01/17 03:30:53;;;;;;;13.00;4.70;;;;;;;5.79;100.00;103046.56;5033783;28;20052;-59
2022/01/17 03:33:21;;;;;;;16.63;4.55;;;;;;;5.78;100.00;103052.16;5033539;28;20038;-55
2022/01/17 03:35:49;;;;;;;13.13;4.10;;;;;;;5.75;100.00;103051.50;5033255;28;20050;-58
2022/01/17 03:38:21;;;;;;;14.32;4.60;;;;;;;5.73;100.00;103050.00;5032331;28;20038;-57
2022/01/17 03:40:51;;;;;;;13.95;4.47;;;;;;;5.71;100.00;103042.06;5021376;28;20447;-55
2022/01/17 03:43:19;;;;;;;13.35;4.07;;;;;;;5.70;100.00;103037.69;5021083;28;20480;-56
2022/01/17 03:45:49;;;;;;;15.07;4.53;;;;;;;5.70;100.00;103042.22;5032542;28;20057;-56
2022/01/17 03:48:18;;;;;;;12.88;4.05;;;;;;;5.69;100.00;103041.38;5033494;28;20061;-56
2022/01/17 03:50:46;;;;;;;14.45;4.13;;;;;;;5.69;100.00;103041.38;5032758;28;20119;-55
2022/01/17 03:53:14;;;;;;;13.38;4.15;;;;;;;5.66;100.00;103039.06;5033468;28;20071;-56
2022/01/17 03:55:41;;;;;;;13.80;4.20;;;;;;;5.64;100.00;103037.56;5033260;28;20049;-53
2022/01/17 03:58:09;;;;;;;12.15;3.88;;;;;;;5.63;100.00;103046.69;5033550;28;20699;-52
2022/01/17 04:00:40;;;;;;;16.67;5.03;;;;;;;5.61;100.00;103048.75;5032759;28;20053;-56
2022/01/17 04:03:09;;;;;;;13.38;4.88;;;;;;;5.59;100.00;103053.47;5033192;28;20411;-57
2022/01/17 04:05:37;;;;;;;13.80;4.43;;;;;;;5.59;100.00;103050.78;5032673;28;20124;-56
2022/01/17 04:08:06;;;;;;;10.85;4.25;;;;;;;5.53;100.00;103047.78;5033345;28;20053;-56
2022/01/17 04:10:34;;;;;;;13.52;4.78;;;;;;;5.53;100.00;103052.31;5033093;28;20053;-55
2022/01/17 04:13:04;;;;;;;15.23;5.10;;;;;;;5.51;100.00;103055.22;5032067;28;20140;-54
2022/01/17 04:15:33;;;;;;;13.30;4.68;;;;;;;5.52;100.00;103046.06;5032723;28;20411;-57
2022/01/17 04:18:02;;;;;;;15.55;4.57;;;;;;;5.51;100.00;103048.97;5032471;28;20030;-55
2022/01/17 04:20:31;;;;;;;11.10;4.00;;;;;;;5.51;100.00;103055.22;5033024;28;20053;-56
2022/01/17 04:23:02;;;;;;;13.73;4.97;;;;;;;5.51;100.00;103060.63;5033235;28;20526;-53
2022/01/17 04:25:32;;;;;;;12.70;4.65;;;;;;;5.51;100.00;103057.09;5034151;28;20042;-55
2022/01/17 04:28:01;;;;;;;13.88;4.63;;;;;;;5.51;100.00;103060.63;5029841;28;20057;-56
2022/01/17 04:30:29;;;;;;;15.85;5.35;;;;;;;5.49;100.00;103059.97;5035311;28;20053;-57
2022/01/17 04:32:58;;;;;;;13.77;4.70;;;;;;;5.50;100.00;103052.69;5035671;28;20076;-58
2022/01/17 04:35:27;;;;;;;14.40;5.15;;;;;;;5.48;100.00;103052.03;5033904;28;20067;-55
2022/01/17 04:38:09;;;;;;;13.18;5.28;;;;;;;5.48;100.00;103052.03;5034371;28;20052;-59
2022/01/17 04:40:39;;;;;;;12.70;5.05;;;;;;;5.46;100.00;103051.34;5033185;28;20042;-62
2022/01/17 04:43:21;;;;;;;14.43;5.32;;;;;;;5.44;100.00;103046.16;5033210;28;20053;-59
2022/01/17 04:45:50;;;;;;;14.07;4.90;;;;;;;5.42;100.00;103055.47;5032871;28;20061;-56
2022/01/17 04:48:18;;;;;;;14.50;4.95;;;;;;;5.40;100.00;103058.31;5032397;28;20123;-58
2022/01/17 04:50:46;;;;;;;13.07;4.57;;;;;;;5.39;100.00;103059.34;5033127;28;20045;-56
2022/01/17 04:53:17;;;;;;;15.82;4.80;;;;;;;5.39;100.00;103081.00;5031590;28;20052;-56
2022/01/17 04:55:45;;;;;;;14.15;4.80;;;;;;;5.39;100.00;103085.53;5032587;28;20493;-56
2022/01/17 04:58:13;;;;;;;11.30;4.25;;;;;;;5.40;100.00;103069.13;5031724;28;20504;-57
2022/01/17 05:00:46;;;;;;;13.60;4.75;;;;;;;5.43;100.00;103078.75;5032469;28;20418;-56
2022/01/17 05:03:15;;;;;;;15.27;4.15;;;;;;;5.43;100.00;103090.41;5032815;28;20080;-56
2022/01/17 05:05:43;;;;;;;14.00;4.35;;;;;;;5.44;100.00;103102.91;5032570;28;20037;-54
2022/01/17 05:08:11;;;;;;;17.77;4.63;;;;;;;5.43;100.00;103101.22;5030330;28;20045;-56
2022/01/17 05:10:38;;;;;;;15.30;4.45;;;;;;;5.44;100.00;103096.69;5032217;28;20049;-58
2022/01/17 05:13:15;;;;;;;11.23;4.40;;;;;;;5.43;100.00;103087.69;5034736;28;20045;-57
2022/01/17 05:15:49;;;;;;;12.85;4.15;;;;;;;5.42;100.00;103094.13;5036797;28;20049;-54
2022/01/17 05:20:59;;;;;;;18.77;4.78;;;;;;;5.47;100.00;103089.03;5037096;28;20389;-56
2022/01/17 05:23:27;;;;;;;13.05;4.25;;;;;;;5.46;100.00;103084.66;5035859;28;20037;-56
2022/01/17 05:25:55;;;;;;;12.57;4.28;;;;;;;5.45;100.00;103088.38;5036544;28;20041;-60
2022/01/17 05:28:22;;;;;;;13.05;4.00;;;;;;;5.44;100.00;103092.09;5035735;28;20124;-54
2022/01/17 05:30:50;;;;;;;12.55;3.72;;;;;;;5.44;100.00;103086.69;5036357;28;20049;-57
2022/01/17 05:33:18;;;;;;;12.77;4.22;;;;;;;5.44;100.00;103094.81;5036339;28;20549;-57
2022/01/17 05:35:46;;;;;;;13.77;4.45;;;;;;;5.43;100.00;103101.22;5036004;28;20403;-58
2022/01/17 05:38:14;;;;;;;16.25;4.93;;;;;;;5.43;100.00;103101.22;5035587;28;20060;-54
2022/01/17 05:40:42;;;;;;;16.98;4.82;;;;;;;5.43;100.00;103105.78;5036071;28;20080;-53
2022/01/17 05:43:10;;;;;;;13.63;4.22;;;;;;;5.42;100.00;103094.13;5036165;28;20384;-54
2022/01/17 05:45:37;;;;;;;15.82;4.40;;;;;;;5.41;100.00;103106.00;5035946;28;20053;-57
2022/01/17 05:48:05;;;;;;;11.35;3.88;;;;;;;5.43;100.00;103101.22;5035295;28;20045;-59
2022/01/17 05:50:33;;;;;;;15.10;4.25;;;;;;;5.43;100.00;103084.16;5035279;28;20044;-54
2022/01/17 05:53:01;;;;;;;13.15;4.28;;;;;;;5.43;100.00;103087.69;5035803;28;20049;-55
2022/01/17 05:55:29;;;;;;;8.25;4.00;;;;;;;5.42;100.00;103094.13;5035896;28;20053;-57
2022/01/17 05:57:59;;;;;;;12.35;4.25;;;;;;;5.43;100.00;103094.97;5035351;28;20120;-58
2022/01/17 06:00:27;;;;;;;11.98;4.20;;;;;;;5.41;100.00;103091.59;5035259;28;20038;-58
2022/01/17 06:02:55;;;;;;;11.57;4.53;;;;;;;5.41;100.00;103092.47;5035820;28;20037;-58
2022/01/17 06:05:23;;;;;;;12.07;4.18;;;;;;;5.41;100.00;103097.00;5034459;28;20052;-55
2022/01/17 06:07:50;;;;;;;11.88;3.88;;;;;;;5.40;100.00;103100.75;5034756;28;20439;-56
2022/01/17 06:10:18;;;;;;;17.17;4.82;;;;;;;5.33;100.00;103100.59;5034964;28;20510;-57
2022/01/17 06:12:46;;;;;;;14.98;4.40;;;;;;;5.28;100.00;103098.44;5035284;28;20041;-50
2022/01/17 06:15:14;;;;;;;12.85;4.68;;;;;;;5.26;100.00;103107.72;5035576;28;20088;-53
2022/01/17 06:17:42;;;;;;;13.30;4.38;;;;;;;5.22;100.00;103109.97;5034850;28;20462;-57
2022/01/17 06:20:10;;;;;;;15.90;5.05;;;;;;;5.18;100.00;103088.88;5017643;28;20132;-53
2022/01/17 06:22:38;;;;;;;15.18;5.45;;;;;;;5.19;100.00;103088.66;5034247;28;20385;-58
2022/01/17 06:25:06;;;;;;;12.85;5.10;;;;;;;5.20;100.00;103103.88;5034785;28;20437;-57
2022/01/17 06:27:33;;;;;;;14.90;5.20;;;;;;;5.22;100.00;103114.50;5035147;28;20132;-56
2022/01/17 06:30:02;;;;;;;15.90;5.60;;;;;;;5.22;100.00;103119.91;5034827;28;20052;-57
2022/01/17 06:32:31;;;;;;;16.33;6.35;;;;;;;5.21;100.00;103119.06;5034720;28;20063;-57
2022/01/17 06:34:58;;;;;;;19.33;6.13;;;;;;;5.22;100.00;103114.50;5033649;28;20045;-58
2022/01/17 06:37:26;;;;;;;14.00;6.05;;;;;;;5.23;100.00;103116.19;5034899;28;20076;-59
2022/01/17 06:39:54;;;;;;;15.35;6.40;;;;;;;5.24;100.00;103112.47;5034525;28;20048;-57
2022/01/17 06:42:23;;;;;;;15.65;6.07;;;;;;;5.26;100.00;103110.44;5034178;28;20044;-58
2022/01/17 06:44:52;;;;;;;14.93;6.30;;;;;;;5.31;100.00;103118.84;5033521;28;20049;-60
2022/01/17 06:47:20;;;;;;;13.00;6.68;;;;;;;5.30;100.00;103117.19;5034430;28;20140;-62
2022/01/17 06:49:48;;;;;;;16.02;7.00;;;;;;;5.29;100.00;103120.88;5034573;28;20412;-57
2022/01/17 06:52:16;;;;;;;16.50;6.55;;;;;;;5.27;100.00;103123.78;5034780;28;20046;-58
2022/01/17 06:54:44;;;;;;;14.02;6.07;;;;;;;5.28;100.00;103130.88;5034308;28;20045;-58
2022/01/17 06:57:12;;;;;;;18.63;7.43;;;;;;;5.30;100.00;103130.69;5034878;28;20041;-54
2022/01/17 06:59:40;;;;;;;18.02;7.50;;;;;;;5.34;100.00;103146.41;4324956;28;10000123;-57
2022/01/17 07:02:08;;;;;;;15.32;7.43;;;;;;;5.35;100.00;103144.53;5031059;28;20053;-57
2022/01/17 07:04:36;;;;;;;19.20;7.57;;;;;;;5.35;100.00;103152.63;5032592;28;20065;-59
2022/01/17 07:07:04;;;;;;;15.57;6.25;;;;;;;5.36;100.00;103148.06;5032528;28;20049;-58
2022/01/17 07:09:32;;;;;;;18.38;6.85;;;;;;;5.35;100.00;103168.84;5032532;28;20045;-57
2022/01/17 07:12:00;;;;;;;15.45;6.80;;;;;;;5.36;100.00;103158.88;5030970;28;20042;-59
2022/01/17 07:14:28;;;;;;;15.02;6.47;;;;;;;5.36;100.00;103142.66;5032342;28;20041;-57
2022/01/17 07:16:56;;;;;;;20.27;7.60;;;;;;;5.34;100.00;103138.28;5032406;28;20037;-60
2022/01/17 07:19:25;;;;;;;21.15;7.95;;;;;;;5.34;100.00;103135.59;5034629;28;20045;-59
2022/01/17 07:21:53;;;;;;;16.35;6.85;;;;;;;5.34;100.00;103140.16;5032910;28;20360;-60
2022/01/17 07:24:39;;;;;;;13.63;6.93;;;;;;;5.33;100.00;103143.84;5032251;28;20044;-59
2022/01/17 07:27:07;;;;;;;15.25;6.95;;;;;;;5.32;100.00;103143.03;5032435;28;20288;-59
2022/01/17 07:29:35;;;;;;;17.80;7.35;;;;;;;5.35;100.00;103136.41;5032734;28;20053;-55
2022/01/17 07:32:04;;;;;;;15.00;7.13;;;;;;;5.34;100.00;103145.56;5031887;28;20119;-59
2022/01/17 07:34:31;;;;;;;15.25;6.82;;;;;;;5.34;100.00;103156.38;5033148;28;20495;-59
2022/01/17 07:36:59;;;;;;;18.17;6.95;;;;;;;5.32;100.00;103153.84;5031693;28;20065;-57
2022/01/17 07:39:28;;;;;;;19.55;7.50;;;;;;;5.31;100.00;103164.81;5032567;28;20053;-56
2022/01/17 07:41:56;;;;;;;14.75;7.63;;;;;;;5.29;100.00;103173.13;5031702;28;20046;-56
2022/01/17 07:44:26;;;;;;;16.40;6.90;;;;;;;5.26;100.00;103173.44;5031625;28;20042;-56
2022/01/17 07:46:56;;;;;;;15.75;7.15;;;;;;;5.24;100.00;103177.34;5030124;28;20519;-57
2022/01/17 07:49:25;;;;;;;17.40;6.95;;;;;;;5.21;100.00;103183.09;5030400;28;20053;-57
2022/01/17 07:52:00;;;;;;;17.52;7.55;;;;;;;5.22;100.00;103179.38;5030374;28;20472;-58
2022/01/17 07:54:29;;;;;;;16.42;7.68;;;;;;;5.19;100.00;103174.31;5030418;28;20116;-58
2022/01/17 07:56:58;;;;;;;15.43;7.60;;;;;;;5.16;100.00;103180.06;5032009;28;20033;-58
2022/01/17 07:59:27;;;;;;;14.13;7.07;;;;;;;5.16;100.00;103180.06;5033169;28;20037;-59
2022/01/17 08:01:54;;;;;;;16.08;6.90;;;;;;;5.26;100.00;103167.19;5031905;28;20042;-62
2022/01/17 08:04:22;;;;;;;22.48;6.93;;;;;;;5.25;100.00;103184.44;5033001;28;20045;-59
2022/01/17 08:06:51;;;;;;;16.65;7.72;;;;;;;5.25;100.00;103192.56;5032485;28;20079;-58
2022/01/17 08:09:31;;;;;;;15.38;8.40;;;;;;;5.26;100.00;103186.13;5032974;28;20128;-57
2022/01/17 08:12:09;;;;;;;15.25;7.60;;;;;;;5.27;100.00;103191.34;5036636;28;20053;-56
2022/01/17 08:14:39;;;;;;;16.70;8.15;;;;;;;5.28;100.00;103194.91;5034538;28;20053;-60
2022/01/17 08:17:07;;;;;;;16.40;8.15;;;;;;;5.27;100.00;103199.47;5033360;28;20049;-60
2022/01/17 08:19:35;;;;;;;15.63;8.15;;;;;;;5.28;100.00;103216.53;5033047;28;20054;-58
2022/01/17 08:22:05;;;;;;;15.50;8.18;;;;;;;5.30;100.00;103203.69;5032683;28;20031;-60
2022/01/17 08:24:34;;;;;;;16.27;8.68;;;;;;;5.33;100.00;103208.72;5033250;28;20045;-60
2022/01/17 08:27:02;;;;;;;15.55;7.68;;;;;;;5.33;100.00;103203.31;5032154;28;20044;-56
2022/01/17 08:29:30;;;;;;;18.15;8.25;;;;;;;5.37;100.00;103209.25;5031050;28;20049;-59
2022/01/17 08:31:59;;;;;;;20.00;8.50;;;;;;;5.44;100.00;103200.25;5032291;28;20103;-58
2022/01/17 08:34:27;;;;;;;17.67;8.40;;;;;;;5.43;100.00;103203.13;5032500;28;20076;-58
2022/01/17 08:36:55;;;;;;;19.40;8.07;;;;;;;5.43;100.00;103206.66;5032282;28;20041;-60
2022/01/17 08:39:24;;;;;;;18.80;8.40;;;;;;;5.38;100.00;103217.16;5031599;28;20905;-58
2022/01/17 08:41:54;;;;;;;18.95;9.23;;;;;;;5.31;100.00;103213.47;5015179;28;20092;-52
2022/01/17 08:44:22;;;;;;;19.83;9.35;;;;;;;5.27;100.00;103196.75;5027341;28;20056;-54
2022/01/17 08:46:49;;;;;;;17.75;8.60;;;;;;;5.27;100.00;103190.53;5030779;28;20060;-56
2022/01/17 08:49:17;;;;;;;21.98;10.07;;;;;;;5.27;100.00;103193.22;5032134;28;20053;-57
2022/01/17 08:51:46;;;;;;;22.92;9.50;;;;;;;5.27;100.00;103199.47;5032577;28;20128;-57
2022/01/17 08:54:14;;;;;;;18.38;9.30;;;;;;;5.30;100.00;103203.69;5032098;28;20499;-61
2022/01/17 08:56:41;;;;;;;20.42;8.50;;;;;;;5.41;100.00;103210.56;5032470;28;20052;-58
2022/01/17 08:59:09;;;;;;;20.15;8.82;;;;;;;5.44;100.00;103208.38;5032202;28;20409;-54
2022/01/17 09:01:37;;;;;;;18.77;8.70;;;;;;;5.44;100.00;103205.66;5031948;28;20041;-57
2022/01/17 09:04:05;;;;;;;17.63;9.18;;;;;;;5.43;100.00;103201.25;5032646;28;20045;-60
2022/01/17 09:06:32;;;;;;;24.98;9.32;;;;;;;5.47;100.00;103208.00;5032607;28;20050;-55
2022/01/17 09:09:00;;;;;;;23.98;8.60;;;;;;;5.46;100.00;103208.16;5033670;28;20056;-57
2022/01/17 09:11:28;;;;;;;22.67;10.65;;;;;;;5.43;100.00;103214.78;5031031;28;20077;-61
2022/01/17 09:13:56;;;;;;;20.77;9.32;;;;;;;5.44;100.00;103215.63;5014722;28;20076;-57
2022/01/17 09:16:24;;;;;;;20.67;9.40;;;;;;;5.41;100.00;103227.66;5032151;28;20519;-59
2022/01/17 09:18:51;;;;;;;21.85;9.77;;;;;;;5.45;100.00;103239.78;5032275;28;20046;-58
2022/01/17 09:21:19;;;;;;;21.90;8.27;;;;;;;5.48;100.00;103244.84;5031908;28;20050;-58
2022/01/17 09:23:48;;;;;;;21.48;8.63;;;;;;;5.49;100.00;103246.53;5032875;28;20078;-58
2022/01/17 09:26:16;;;;;;;24.05;8.50;;;;;;;5.49;100.00;103251.94;5030993;28;20407;-58
2022/01/17 09:28:45;;;;;;;19.85;8.50;;;;;;;5.51;100.00;103243.66;5032501;28;20033;-60
2022/01/17 09:31:12;;;;;;;24.35;8.02;;;;;;;5.52;100.00;103235.34;5030653;28;20131;-58
2022/01/17 09:33:40;;;;;;;19.77;8.35;;;;;;;5.52;100.00;103245.34;5032211;28;20041;-58
2022/01/17 09:36:07;;;;;;;20.92;8.30;;;;;;;5.55;100.00;103245.81;5032324;28;20393;-59
2022/01/17 09:38:35;;;;;;;18.67;8.00;;;;;;;5.56;100.00;103246.69;5031269;28;20356;-59
2022/01/17 09:41:03;;;;;;;23.85;8.90;;;;;;;5.57;100.00;103252.94;5031998;28;20096;-58
2022/01/17 09:43:41;;;;;;;18.00;7.55;;;;;;;5.58;100.00;103251.91;5032149;28;20080;-58
2022/01/17 09:46:10;;;;;;;26.55;8.68;;;;;;;5.54;100.00;103260.38;5031961;28;20046;-59
2022/01/17 09:48:45;;;;;;;20.33;8.02;;;;;;;5.56;100.00;103265.63;5032221;28;20400;-57
2022/01/17 09:53:51;;;;;;;25.02;7.80;;;;;;;5.70;100.00;103285.66;5031201;28;20116;-57
2022/01/17 09:56:21;;;;;;;20.13;7.57;;;;;;;5.74;100.00;103276.19;5031020;28;20098;-57
2022/01/17 09:58:49;;;;;;;26.40;8.20;;;;;;;5.81;100.00;103284.44;5032514;28;20132;-60
2022/01/17 10:01:16;;;;;;;18.70;7.70;;;;;;;5.76;100.00;103301.19;5034710;28;20389;-54
2022/01/17 10:03:46;;;;;;;22.38;7.82;;;;;;;5.70;100.00;103302.75;5037492;28;20196;-59
2022/01/17 10:06:13;;;;;;;20.48;7.25;;;;;;;5.68;100.00;103288.56;5036388;28;20045;-55
2022/01/17 10:08:41;;;;;;;18.83;6.88;;;;;;;5.70;100.00;103302.75;5033590;28;20408;-59
2022/01/17 10:11:15;;;;;;;19.55;7.57;;;;;;;5.71;100.00;103282.78;5035088;28;20779;-50
2022/01/17 10:13:47;;;;;;;20.13;7.30;;;;;;;5.73;100.00;103288.03;5035600;28;20100;-58
2022/01/17 10:16:20;;;;;;;21.50;7.85;;;;;;;5.72;100.00;103294.44;5034718;28;20041;-55
2022/01/17 10:18:58;;;;;;;25.20;7.38;;;;;;;5.73;100.00;103299.69;5035472;28;20111;-50
2022/01/17 10:21:29;;;;;;;19.30;7.60;;;;;;;5.74;100.00;103287.00;5017180;28;20053;-59
2022/01/17 10:37:13;;;;;;;23.75;7.22;;;;;;;5.79;100.00;103302.72;5034881;28;20578;-53
2022/01/17 10:40:07;;;;;;;28.30;7.38;;;;;;;5.80;100.00;103299.84;5035196;28;20065;-59
2022/01/17 10:42:42;;;;;;;22.52;6.55;;;;;;;5.80;100.00;103307.97;5034569;28;20045;-63
2022/01/17 10:45:14;;;;;;;24.83;6.72;;;;;;;5.81;100.00;103309.63;5035018;28;20417;-58
2022/01/17 10:47:47;;;;;;;24.13;7.07;;;;;;;5.80;100.00;103307.09;5034760;28;20148;-57
2022/01/17 10:50:18;;;;;;;25.13;6.82;;;;;;;5.80;100.00;103307.09;5034938;28;20051;-57
2022/01/17 10:52:49;;;;;;;20.80;6.72;;;;;;;5.80;100.00;103301.69;5034317;28;20140;-56
2022/01/17 10:55:24;;;;;;;24.40;6.57;;;;;;;5.81;100.00;103309.63;5034822;28;20488;-53
2022/01/17 10:58:08;;;;;;;24.85;7.10;;;;;;;5.81;100.00;103325.03;5035155;28;20096;-56
2022/01/17 11:00:37;;;;;;;28.80;7.85;;;;;;;5.81;100.00;103331.28;5034385;28;20044;-57
2022/01/17 11:03:07;;;;;;;26.13;6.68;;;;;;;5.83;100.00;103331.13;5034292;28;20046;-56
2022/01/17 11:05:37;;;;;;;31.27;7.28;;;;;;;5.85;100.00;103338.03;5034390;28;20140;-57
2022/01/17 11:08:12;;;;;;;23.50;7.00;;;;;;;5.86;100.00;103339.72;5034478;28;20176;-54
2022/01/17 11:10:50;;;;;;;19.15;6.32;;;;;;;5.89;100.00;103349.34;5032980;28;20441;-58
2022/01/17 11:13:20;;;;;;;22.73;6.65;;;;;;;5.88;100.00;103348.50;5033756;28;20205;-56
2022/01/17 11:15:56;;;;;;;32.05;7.47;;;;;;;5.90;100.00;103351.03;5034167;28;20044;-59
2022/01/17 11:18:28;;;;;;;22.48;6.90;;;;;;;5.91;100.00;103348.16;5034321;28;20046;-60
2022/01/17 11:21:10;;;;;;;24.30;6.43;;;;;;;5.93;100.00;103350.69;5033926;28;20041;-58
2022/01/17 11:23:38;;;;;;;26.00;6.90;;;;;;;5.94;100.00;103337.03;5013068;28;20045;-60
2022/01/17 11:26:06;;;;;;;29.27;7.18;;;;;;;5.96;100.00;103324.16;5030688;28;20099;-60
2022/01/17 11:28:34;;;;;;;22.17;6.30;;;;;;;5.98;100.00;103326.69;5033624;28;20065;-59
2022/01/17 11:31:07;;;;;;;25.70;6.88;;;;;;;5.98;100.00;103322.09;5033788;28;20052;-60
2022/01/17 11:33:35;;;;;;;23.95;6.13;;;;;;;6.01;100.00;103320.06;5033229;28;20121;-58
2022/01/17 11:36:04;;;;;;;23.25;6.32;;;;;;;6.02;100.00;103322.63;5016328;28;20099;-58
2022/01/17 11:38:41;;;;;;;19.80;6.05;;;;;;;6.04;100.00;103326.00;5033649;28;20038;-61
2022/01/17 11:41:34;;;;;;;24.80;6.40;;;;;;;6.06;100.00;103325.78;5033518;28;20045;-56
2022/01/17 11:44:05;;;;;;;29.83;6.60;;;;;;;6.07;100.00;103330.19;5031915;28;20455;-59
2022/01/17 11:46:45;;;;;;;20.05;5.95;;;;;;;6.08;100.00;103331.88;5033858;28;20088;-60
2022/01/17 11:49:13;;;;;;;27.58;6.93;;;;;;;6.10;100.00;103340.66;5033997;28;20055;-58
2022/01/17 11:51:46;;;;;;;27.73;6.78;;;;;;;6.11;100.00;103339.63;5033040;28;20087;-57
2022/01/17 11:54:22;;;;;;;30.10;7.57;;;;;;;6.12;100.00;103346.75;5033922;28;20067;-57
2022/01/17 11:57:02;;;;;;;24.67;6.70;;;;;;;6.15;100.00;103359.94;5034000;28;20042;-53
2022/01/17 11:59:48;;;;;;;23.42;6.20;;;;;;;6.17;100.00;103357.91;5033071;28;20088;-57
2022/01/17 12:02:27;;;;;;;27.25;6.25;;;;;;;6.24;100.00;103352.63;5032976;28;20408;-56